Time;durP1;ratioP1;P1;durP2;ratioP2;P2;SDS_P1;SDS_P2;PMS_P1;PMS_P2;Temp;Humidity;BMP_temperature;BMP_pressure;BME280_temperature;BME280_humidity;BME280_pressure;Samples;Min_cycle;Max_cycle;Signal;HPM_P1;HPM_P2
2022/09/05 00:03:01;;;;;;;20.02;18.17;;;25.00;61.10;;;;;;4736383;55;21111;-33
2022/09/05 00:08:32;;;;;;;19.73;17.92;;;25.00;61.20;;;;;;4741624;55;21086;-29
2022/09/05 00:13:44;;;;;;;19.90;18.10;;;25.00;61.10;;;;;;4758123;55;20983;-36
2022/09/05 00:20:38;;;;;;;20.25;18.37;;;25.00;61.00;;;;;;4752568;55;20980;-30
2022/09/05 00:27:53;;;;;;;19.92;18.10;;;24.90;61.00;;;;;;4797511;55;21019;-34
2022/09/05 00:34:39;;;;;;;20.52;18.65;;;24.90;61.10;;;;;;4774580;55;21047;-29
2022/09/05 00:39:41;;;;;;;19.30;17.45;;;24.90;61.00;;;;;;4745552;55;20987;-28
2022/09/05 00:44:57;;;;;;;21.70;19.75;;;25.00;61.00;;;;;;4771655;55;21019;-28
2022/09/05 00:50:12;;;;;;;20.33;18.52;;;24.90;60.90;;;;;;4748352;55;21047;-26
2022/09/05 00:57:12;;;;;;;21.02;18.95;;;24.90;61.00;;;;;;4797783;55;21039;-34
2022/09/05 01:09:10;;;;;;;20.90;18.90;;;24.90;60.90;;;;;;4737642;55;21055;-28
2022/09/05 01:16:24;;;;;;;21.52;19.42;;;24.90;61.00;;;;;;4746760;55;20987;-25
2022/09/05 01:22:41;;;;;;;20.93;18.93;;;25.00;61.00;;;;;;4748873;55;20992;-26
2022/09/05 01:34:17;;;;;;;20.25;18.45;;;24.90;61.00;;;;;;4743147;55;21303;-25
2022/09/05 01:41:10;;;;;;;21.33;19.27;;;24.90;60.90;;;;;;4750907;55;22072;-30
2022/09/05 01:46:43;;;;;;;20.65;18.85;;;24.90;60.90;;;;;;4737666;55;21608;-34
2022/09/05 01:52:24;;;;;;;21.23;19.23;;;24.90;60.90;;;;;;4752856;55;21055;-32
2022/09/05 02:00:37;;;;;;;21.00;19.00;;;24.90;60.80;;;;;;4736814;55;21605;-29
2022/09/05 02:09:48;;;;;;;20.35;18.35;;;24.90;60.90;;;;;;4738120;55;21090;-31
2022/09/05 02:15:07;;;;;;;20.12;18.17;;;24.90;60.80;;;;;;4754710;55;21663;-27
2022/09/05 02:20:59;;;;;;;20.75;18.83;;;24.90;60.90;;;;;;4735948;59;21015;-25
2022/09/05 02:26:22;;;;;;;20.52;18.60;;;24.90;60.80;;;;;;4739591;55;22442;-29
2022/09/05 02:31:42;;;;;;;21.17;19.27;;;24.90;61.50;;;;;;4749252;55;21035;-34
2022/09/05 02:36:59;;;;;;;21.80;19.65;;;24.90;60.80;;;;;;4770538;55;20956;-32
2022/09/05 02:45:56;;;;;;;20.70;18.80;;;24.90;60.80;;;;;;4736832;55;21086;-32
2022/09/05 02:51:24;;;;;;;21.27;19.10;;;24.90;60.80;;;;;;4793929;55;21020;-36
2022/09/05 02:56:44;;;;;;;21.27;19.25;;;24.90;60.80;;;;;;4755542;55;20967;-27
2022/09/05 03:02:09;;;;;;;20.75;18.75;;;24.90;60.80;;;;;;4807515;55;21020;-30
2022/09/05 03:08:06;;;;;;;21.85;19.75;;;24.90;61.40;;;;;;4739024;55;21043;-34
2022/09/05 03:14:02;;;;;;;21.77;19.48;;;24.90;60.80;;;;;;4750125;55;20979;-31
2022/09/05 03:22:09;;;;;;;21.13;19.13;;;24.90;61.40;;;;;;4764875;55;20994;-24
2022/09/05 03:28:19;;;;;;;21.80;19.65;;;24.90;60.80;;;;;;4745261;55;21090;-28
2022/09/05 03:33:55;;;;;;;22.10;19.80;;;24.90;60.80;;;;;;4737190;55;21071;-32
2022/09/05 03:39:39;;;;;;;21.67;19.42;;;24.90;60.90;;;;;;4747112;55;21015;-28
2022/09/05 03:48:02;;;;;;;22.50;19.90;;;24.90;60.80;;;;;;4740405;55;21090;-30
2022/09/05 03:54:07;;;;;;;22.35;20.05;;;24.90;60.80;;;;;;4743128;55;21067;-25
2022/09/05 04:02:42;;;;;;;22.42;20.20;;;24.90;60.90;;;;;;4790158;55;21023;-28
2022/09/05 04:07:46;;;;;;;21.60;19.40;;;24.90;60.90;;;;;;4756289;55;21012;-31
2022/09/05 04:12:58;;;;;;;25.08;20.55;;;24.90;60.90;;;;;;4788971;55;21071;-26
2022/09/05 04:18:03;;;;;;;22.20;19.92;;;24.90;61.00;;;;;;4761316;55;21980;-27
2022/09/05 04:26:21;;;;;;;23.17;20.70;;;24.90;61.10;;;;;;4745187;55;21035;-25
2022/09/05 04:32:05;;;;;;;22.75;20.40;;;24.90;61.10;;;;;;4749089;55;20995;-36
2022/09/05 04:37:09;;;;;;;23.98;21.50;;;24.80;61.00;;;;;;4775643;55;21035;-33
2022/09/05 04:42:25;;;;;;;23.02;20.23;;;24.90;61.10;;;;;;4780888;55;21047;-28
2022/09/05 04:47:33;;;;;;;22.33;20.00;;;24.90;61.00;;;;;;4736961;59;20960;-31
2022/09/05 04:56:15;;;;;;;26.17;22.02;;;24.90;61.00;;;;;;4736990;59;20991;-27
2022/09/05 05:01:32;;;;;;;24.17;20.98;;;24.90;61.10;;;;;;4742989;55;21035;-27
2022/09/05 05:06:48;;;;;;;23.87;21.00;;;24.90;61.10;;;;;;4736199;55;21020;-25
2022/09/05 05:12:48;;;;;;;24.83;21.42;;;24.90;61.10;;;;;;4746733;55;20992;-28
2022/09/05 05:18:01;;;;;;;24.48;21.05;;;24.90;61.10;;;;;;4739411;55;20976;-32
2022/09/05 05:23:09;;;;;;;24.60;21.08;;;24.90;61.10;;;;;;4751969;55;21023;-29
2022/09/05 05:28:12;;;;;;;26.10;21.12;;;24.90;61.00;;;;;;4738240;55;21063;-30
2022/09/05 05:33:26;;;;;;;24.00;20.35;;;24.90;61.10;;;;;;4750602;55;21110;-29
2022/09/05 05:38:52;;;;;;;24.98;21.87;;;24.90;61.10;;;;;;4756305;55;21461;-29
2022/09/05 05:43:53;;;;;;;24.48;21.87;;;24.90;61.00;;;;;;4735700;59;22342;-26
2022/09/05 05:49:22;;;;;;;26.58;21.40;;;24.90;61.00;;;;;;4753434;55;21071;-27
2022/09/05 05:56:05;;;;;;;25.00;21.08;;;24.90;61.00;;;;;;4746675;55;21051;-26
2022/09/05 06:08:11;;;;;;;27.37;22.42;;;24.90;61.00;;;;;;4736469;59;20996;-27
2022/09/05 06:14:00;;;;;;;27.60;22.40;;;24.90;61.00;;;;;;4749313;55;21506;-25
2022/09/05 06:19:40;;;;;;;25.45;21.27;;;24.90;61.00;;;;;;4737057;59;21344;-28
2022/09/05 06:25:15;;;;;;;26.87;22.30;;;24.80;61.00;;;;;;4743581;55;21031;-26
2022/09/05 06:30:20;;;;;;;27.73;21.53;;;24.90;61.00;;;;;;4739790;55;20979;-33
2022/09/05 06:36:59;;;;;;;26.83;22.67;;;24.80;61.00;;;;;;4736457;59;21516;-25
2022/09/05 06:42:28;;;;;;;29.05;22.80;;;24.80;61.00;;;;;;4753077;55;22408;-25
2022/09/05 06:47:33;;;;;;;30.80;23.98;;;24.80;61.00;;;;;;4737161;55;21076;-27
2022/09/05 06:54:49;;;;;;;74.93;39.03;;;24.80;61.00;;;;;;4754846;55;21004;-33
2022/09/05 07:06:51;;;;;;;81.15;46.83;;;24.80;62.70;;;;;;4735542;59;21003;-35
2022/09/05 07:12:25;;;;;;;97.70;55.17;;;24.60;63.40;;;;;;4752348;55;21071;-32
2022/09/05 07:18:19;;;;;;;108.82;60.75;;;24.60;63.80;;;;;;4751599;55;21528;-30
2022/09/05 07:24:02;;;;;;;92.07;56.58;;;24.60;63.90;;;;;;4771641;55;22264;-30
2022/09/05 07:29:06;;;;;;;102.57;64.43;;;24.60;64.10;;;;;;4736086;59;21600;-31
2022/09/05 07:34:31;;;;;;;123.60;77.00;;;24.60;64.10;;;;;;4764066;55;20984;-27
2022/09/05 07:39:37;;;;;;;142.65;95.35;;;24.70;64.20;;;;;;4759330;55;21047;-26
2022/09/05 07:44:48;;;;;;;136.70;91.18;;;24.70;64.00;;;;;;4759030;55;21056;-31
2022/09/05 07:49:51;;;;;;;107.68;73.47;;;24.70;64.00;;;;;;4761985;55;21128;-34
2022/09/05 07:54:53;;;;;;;93.10;60.08;;;24.70;63.70;;;;;;4772260;55;21000;-31
2022/09/05 08:00:10;;;;;;;94.07;62.80;;;24.60;64.00;;;;;;4739796;55;21003;-29
2022/09/05 08:05:14;;;;;;;104.55;72.90;;;24.70;63.50;;;;;;4745403;55;20968;-31
2022/09/05 08:10:29;;;;;;;88.18;61.83;;;24.70;63.80;;;;;;4747876;55;21114;-32
2022/09/05 08:15:30;;;;;;;79.93;56.37;;;24.70;63.60;;;;;;4747622;55;21024;-34
2022/09/05 08:23:26;;;;;;;83.20;57.17;;;24.70;63.50;;;;;;4735616;55;20984;-31
2022/09/05 08:28:55;;;;;;;69.05;48.08;;;24.70;63.70;;;;;;4779078;55;21047;-32
2022/09/05 08:34:02;;;;;;;69.80;46.72;;;24.70;63.60;;;;;;4761185;55;21011;-33
2022/09/05 08:39:05;;;;;;;;;;;24.70;64.00;;;;;;4745665;55;21027;-32
2022/09/05 08:46:25;;;;;;;84.72;60.97;;;24.70;63.40;;;;;;4735406;59;20061;-32
2022/09/05 08:55:18;;;;;;;85.00;60.15;;;24.70;64.00;;;;;;4753367;55;21051;-34
2022/09/05 09:00:19;;;;;;;110.47;79.10;;;24.70;63.40;;;;;;4738081;55;21111;-34
2022/09/05 09:06:03;;;;;;;133.15;97.97;;;24.70;63.40;;;;;;4745118;55;21063;-33
2022/09/05 09:11:30;;;;;;;126.15;93.65;;;24.70;63.40;;;;;;4738609;55;21036;-31
2022/09/05 09:18:21;;;;;;;116.80;83.12;;;24.80;63.70;;;;;;4755504;55;21570;-31
2022/09/05 09:23:54;;;;;;;106.22;79.65;;;24.80;64.30;;;;;;4737252;55;21082;-28
2022/09/05 09:29:07;;;;;;;106.90;78.87;;;24.90;64.00;;;;;;4756088;55;21002;-31
2022/09/05 09:34:33;;;;;;;102.72;76.75;;;24.90;63.70;;;;;;4755944;55;21449;-30
2022/09/05 09:39:56;;;;;;;;;;;24.90;63.50;;;;;;4741697;55;21071;-33
2022/09/05 09:52:55;;;;;;;100.70;74.82;;;25.00;63.30;;;;;;4733938;55;20073;-33
2022/09/05 09:58:19;;;;;;;86.37;61.22;;;25.00;62.90;;;;;;4735942;59;20980;-26
2022/09/05 10:04:11;;;;;;;67.62;51.70;;;25.10;63.00;;;;;;4772019;55;21083;-30
2022/09/05 10:13:53;;;;;;;68.95;50.95;;;25.10;62.90;;;;;;4743331;55;21068;-33
2022/09/05 10:23:59;;;;;;;69.35;47.15;;;25.10;62.40;;;;;;4742582;55;21395;-28
2022/09/05 10:32:13;;;;;;;46.35;33.33;;;25.10;60.90;;;;;;4736521;55;21007;-30
2022/09/05 10:37:18;;;;;;;48.87;35.78;;;25.10;59.20;;;;;;4764919;55;21011;-31
2022/09/05 10:42:42;;;;;;;41.37;31.77;;;25.10;59.40;;;;;;4745883;55;21480;-26
2022/09/05 10:48:15;;;;;;;42.60;30.60;;;25.20;59.30;;;;;;4772805;55;21501;-31
2022/09/05 10:53:52;;;;;;;36.28;27.33;;;25.20;59.30;;;;;;4758477;55;21020;-32
2022/09/05 11:01:46;;;;;;;30.15;24.08;;;25.20;58.40;;;;;;4736892;55;21048;-28
2022/09/05 11:07:14;;;;;;;27.08;20.58;;;25.20;58.40;;;;;;4739637;55;21551;-31
2022/09/05 11:13:48;;;;;;;23.90;20.65;;;25.20;57.30;;;;;;4735099;59;21336;-29
2022/09/05 11:19:19;;;;;;;22.98;19.90;;;25.20;57.20;;;;;;4747815;55;21035;-31
2022/09/05 11:24:49;;;;;;;21.95;18.98;;;25.20;57.00;;;;;;4800422;55;21042;-30
2022/09/05 11:29:57;;;;;;;27.25;20.10;;;25.20;56.70;;;;;;4753166;55;21011;-31
2022/09/05 11:36:46;;;;;;;29.58;22.05;;;25.20;57.00;;;;;;4746863;55;21089;-30
2022/09/05 11:44:27;;;;;;;35.20;24.12;;;25.20;57.30;;;;;;4740863;55;21051;-31
2022/09/05 11:51:16;;;;;;;33.45;22.73;;;25.20;56.90;;;;;;4735931;59;20969;-29
2022/09/05 11:58:24;;;;;;;30.12;22.73;;;25.20;56.90;;;;;;4736529;59;21003;-35
2022/09/05 12:04:03;;;;;;;33.47;22.70;;;25.30;57.10;;;;;;4771893;55;21043;-33
2022/09/05 12:09:32;;;;;;;34.45;24.80;;;25.30;57.10;;;;;;4761875;55;21508;-32
2022/09/05 12:15:20;;;;;;;36.17;28.10;;;25.20;57.10;;;;;;4758597;55;21505;-27
2022/09/05 12:22:17;;;;;;;37.47;29.48;;;25.20;57.20;;;;;;4773894;55;21039;-32
2022/09/05 12:27:21;;;;;;;38.83;31.12;;;25.20;57.20;;;;;;4750810;55;21536;-38
2022/09/05 12:32:25;;;;;;;38.95;29.67;;;25.30;57.60;;;;;;4749327;55;21536;-34
2022/09/05 12:37:36;;;;;;;36.88;30.75;;;25.30;57.70;;;;;;4737519;55;21004;-26
2022/09/05 12:42:59;;;;;;;39.08;30.80;;;25.30;57.90;;;;;;4736752;55;21035;-29
2022/09/05 12:48:31;;;;;;;38.40;29.70;;;25.40;58.10;;;;;;4740005;55;21498;-28
2022/09/05 12:53:51;;;;;;;36.72;30.15;;;25.40;57.90;;;;;;4737841;55;21040;-36
2022/09/05 12:58:53;;;;;;;38.72;33.10;;;25.40;57.60;;;;;;4746941;55;20976;-34
2022/09/05 13:04:01;;;;;;;41.20;31.75;;;25.40;57.50;;;;;;4735519;55;21063;-34
2022/09/05 13:09:20;;;;;;;38.22;30.90;;;25.40;57.20;;;;;;4754690;55;21043;-27
2022/09/05 13:14:30;;;;;;;42.17;32.70;;;25.40;57.10;;;;;;4739113;55;20979;-30
2022/09/05 13:19:39;;;;;;;45.05;35.08;;;25.50;57.20;;;;;;4802658;55;21465;-34
2022/09/05 13:24:45;;;;;;;48.47;36.25;;;25.50;57.20;;;;;;4761278;55;21516;-31
2022/09/05 13:29:57;;;;;;;42.85;36.30;;;25.50;57.20;;;;;;4750863;55;21063;-32
2022/09/05 13:38:38;;;;;;;41.70;33.08;;;25.50;57.10;;;;;;4739323;55;21446;-31
2022/09/05 13:43:39;;;;;;;41.58;35.17;;;25.50;56.90;;;;;;4741600;55;21015;-36
2022/09/05 13:48:55;;;;;;;41.85;34.95;;;25.50;57.10;;;;;;4749464;55;21047;-31
2022/09/05 13:54:47;;;;;;;46.55;38.80;;;25.50;57.10;;;;;;4759410;55;21532;-30
2022/09/05 14:06:55;;;;;;;46.03;39.15;;;25.50;56.70;;;;;;4763640;55;21115;-29
2022/09/05 14:13:09;;;;;;;50.30;40.60;;;25.50;56.90;;;;;;4740448;55;21588;-32
2022/09/05 14:18:25;;;;;;;50.22;42.85;;;25.60;56.80;;;;;;4786784;55;21003;-30
2022/09/05 14:23:36;;;;;;;52.97;41.53;;;25.50;56.80;;;;;;4775009;55;21068;-29
2022/09/05 14:28:44;;;;;;;54.40;40.17;;;25.60;56.90;;;;;;4772854;55;20984;-30
2022/09/05 14:36:54;;;;;;;46.30;38.20;;;25.60;57.00;;;;;;4736403;59;21039;-28
2022/09/05 14:42:22;;;;;;;42.40;37.58;;;25.50;56.70;;;;;;4750800;55;21103;-34
2022/09/05 14:50:37;;;;;;;48.17;37.80;;;25.50;56.80;;;;;;4775665;55;21450;-25
2022/09/05 14:55:52;;;;;;;40.70;35.00;;;25.50;57.00;;;;;;4736722;59;21481;-32
2022/09/05 15:01:06;;;;;;;41.85;36.17;;;25.50;57.20;;;;;;4743421;55;21027;-25
2022/09/05 15:06:20;;;;;;;43.60;35.28;;;25.40;57.30;;;;;;4740053;55;21063;-27
2022/09/05 15:11:25;;;;;;;41.40;35.20;;;25.40;57.30;;;;;;4759593;55;21004;-33
2022/09/05 15:16:26;;;;;;;42.22;35.70;;;25.40;57.50;;;;;;4760894;55;21473;-35
2022/09/05 15:21:36;;;;;;;40.15;34.10;;;25.40;57.50;;;;;;4759969;55;21146;-27
2022/09/05 15:26:56;;;;;;;40.17;35.03;;;25.40;57.60;;;;;;4739579;55;21533;-36
2022/09/05 15:32:20;;;;;;;40.65;34.92;;;25.30;57.60;;;;;;4736187;55;20991;-34
2022/09/05 15:37:39;;;;;;;41.37;34.38;;;25.30;57.70;;;;;;4746032;55;21563;-28
2022/09/05 15:42:59;;;;;;;39.58;33.38;;;25.30;57.80;;;;;;4743972;55;21169;-29
2022/09/05 15:48:24;;;;;;;38.05;33.67;;;25.30;57.80;;;;;;4739229;55;21528;-30
2022/09/05 15:53:32;;;;;;;36.77;32.30;;;25.20;57.80;;;;;;4736633;59;21493;-26
2022/09/05 15:58:36;;;;;;;38.25;33.30;;;25.30;57.90;;;;;;4779746;55;21540;-29
2022/09/05 16:03:38;;;;;;;40.08;33.78;;;25.30;58.60;;;;;;4768472;55;21023;-34
2022/09/05 16:08:47;;;;;;;37.72;33.63;;;25.30;58.10;;;;;;4768786;55;21513;-30
2022/09/05 16:13:53;;;;;;;37.55;32.80;;;25.30;58.10;;;;;;4753122;55;20998;-34
2022/09/05 16:18:54;;;;;;;37.28;32.85;;;25.20;58.10;;;;;;4752598;55;21584;-36
2022/09/05 16:24:05;;;;;;;37.22;31.95;;;25.20;58.10;;;;;;4772718;55;21068;-31
2022/09/05 16:29:18;;;;;;;35.50;31.60;;;25.20;58.20;;;;;;4756838;55;20991;-28
2022/09/05 16:41:15;;;;;;;36.60;31.87;;;25.20;58.20;;;;;;4744881;55;21469;-37
2022/09/05 16:46:30;;;;;;;33.50;29.95;;;25.20;58.30;;;;;;4742775;55;21002;-24
2022/09/05 16:51:44;;;;;;;36.45;31.00;;;25.20;58.30;;;;;;4747972;55;21111;-27
2022/09/05 16:56:50;;;;;;;35.30;31.45;;;25.20;58.40;;;;;;4740376;55;20996;-35
2022/09/05 17:03:51;;;;;;;36.33;32.40;;;25.20;58.40;;;;;;4754546;55;21075;-34
2022/09/05 17:08:55;;;;;;;35.05;31.17;;;25.20;58.40;;;;;;4763905;55;21437;-33
2022/09/05 17:14:06;;;;;;;35.15;31.45;;;25.20;58.50;;;;;;4739732;55;21533;-28
2022/09/05 17:19:15;;;;;;;38.45;31.40;;;25.20;58.50;;;;;;4748955;55;21051;-38
2022/09/05 17:24:19;;;;;;;34.15;30.35;;;25.20;58.50;;;;;;4735838;55;20996;-41
2022/09/05 17:32:52;;;;;;;34.53;30.83;;;25.20;58.60;;;;;;4736550;59;20976;-35
2022/09/05 17:38:29;;;;;;;35.03;30.92;;;25.20;58.60;;;;;;4747769;55;21469;-31
2022/09/05 17:43:38;;;;;;;34.15;30.52;;;25.20;58.70;;;;;;4735849;55;21031;-33
2022/09/05 17:49:35;;;;;;;34.97;31.27;;;25.20;58.70;;;;;;4736839;59;22284;-34
2022/09/05 17:54:36;;;;;;;36.97;31.45;;;25.20;58.70;;;;;;4740148;55;21541;-30
2022/09/05 17:59:37;;;;;;;35.47;31.75;;;25.20;58.80;;;;;;4739220;55;21011;-32
2022/09/05 18:04:52;;;;;;;33.75;30.05;;;25.10;59.00;;;;;;4739469;55;21024;-37
2022/09/05 18:10:08;;;;;;;34.90;30.80;;;25.20;58.90;;;;;;4737922;55;21516;-33
2022/09/05 18:15:17;;;;;;;33.20;29.70;;;25.20;58.90;;;;;;4758870;55;21477;-29
2022/09/05 18:21:06;;;;;;;33.47;29.95;;;25.10;58.80;;;;;;4745507;55;21022;-25
2022/09/05 18:26:22;;;;;;;34.15;29.85;;;25.20;59.00;;;;;;4743719;55;21493;-26
2022/09/05 18:35:37;;;;;;;32.85;29.35;;;25.20;59.00;;;;;;4746053;55;20979;-25
2022/09/05 18:40:56;;;;;;;33.75;28.87;;;25.20;59.10;;;;;;4749496;55;20999;-27
2022/09/05 18:46:05;;;;;;;32.78;28.95;;;25.20;59.10;;;;;;4736240;59;21004;-36
2022/09/05 18:51:11;;;;;;;33.05;29.52;;;25.20;59.20;;;;;;4804247;55;21492;-23
2022/09/05 18:56:50;;;;;;;31.62;28.33;;;25.20;59.30;;;;;;4751531;55;20979;-25
2022/09/05 19:01:57;;;;;;;31.58;28.27;;;25.10;59.80;;;;;;4746843;55;21012;-29
2022/09/05 19:07:05;;;;;;;31.60;28.25;;;25.20;59.40;;;;;;4754221;55;21506;-37
2022/09/05 19:12:09;;;;;;;32.03;27.80;;;25.20;59.40;;;;;;4744883;55;20991;-32
2022/09/05 19:17:23;;;;;;;30.88;27.58;;;25.10;59.40;;;;;;4757320;55;21016;-30
2022/09/05 19:22:24;;;;;;;30.75;27.55;;;25.10;59.40;;;;;;4780725;55;21051;-32
2022/09/05 19:27:28;;;;;;;30.20;26.62;;;25.10;59.40;;;;;;4741800;55;20996;-31
2022/09/05 19:32:29;;;;;;;30.35;27.15;;;25.10;59.50;;;;;;4756816;55;21505;-34
2022/09/05 19:37:31;;;;;;;28.95;25.95;;;25.10;59.50;;;;;;4739110;55;20991;-31
2022/09/05 19:42:31;;;;;;;30.65;26.73;;;25.10;59.50;;;;;;4750620;55;21138;-28
2022/09/05 19:47:34;;;;;;;28.95;25.92;;;25.10;59.60;;;;;;4755029;55;21063;-34
2022/09/05 19:52:37;;;;;;;29.10;26.02;;;25.10;59.60;;;;;;4751437;55;21536;-33
2022/09/05 19:57:38;;;;;;;28.55;25.45;;;25.10;59.70;;;;;;4797482;55;21943;-35
2022/09/05 20:02:42;;;;;;;29.65;26.37;;;25.10;59.70;;;;;;4751069;55;21038;-35
2022/09/05 20:07:52;;;;;;;28.42;25.35;;;25.10;59.20;;;;;;4764371;55;21445;-34
2022/09/05 20:12:54;;;;;;;27.65;24.75;;;25.10;59.80;;;;;;4753427;55;21007;-26
2022/09/05 20:18:16;;;;;;;28.35;24.33;;;25.10;59.80;;;;;;4749084;55;21046;-29
2022/09/05 20:23:18;;;;;;;27.55;24.73;;;25.10;59.80;;;;;;4735940;59;20996;-25
2022/09/05 20:28:22;;;;;;;29.33;25.90;;;25.10;59.80;;;;;;4774058;55;20979;-26
2022/09/05 20:36:02;;;;;;;27.62;24.65;;;25.10;59.80;;;;;;4737067;55;20979;-26
2022/09/05 20:41:16;;;;;;;27.80;24.90;;;25.10;59.80;;;;;;4761528;55;20972;-31
2022/09/05 20:47:46;;;;;;;27.77;25.00;;;25.10;59.80;;;;;;4743687;55;21036;-27
2022/09/05 20:52:53;;;;;;;26.75;23.85;;;25.10;59.90;;;;;;4736249;59;21457;-33
2022/09/05 20:58:14;;;;;;;27.37;24.20;;;25.10;59.80;;;;;;4819255;55;21553;-32
2022/09/05 21:03:29;;;;;;;25.70;22.95;;;25.10;59.80;;;;;;4755362;55;21035;-36
2022/09/05 21:08:33;;;;;;;26.08;23.25;;;25.10;60.40;;;;;;4802675;55;21533;-26
2022/09/05 21:13:37;;;;;;;26.62;23.80;;;25.00;59.70;;;;;;4755702;55;21052;-26
2022/09/05 21:18:41;;;;;;;25.58;23.00;;;25.10;59.80;;;;;;4801820;55;20984;-30
2022/09/05 21:23:42;;;;;;;24.98;22.42;;;25.00;59.70;;;;;;4735769;59;21481;-33
2022/09/05 21:29:43;;;;;;;25.90;23.17;;;25.00;59.70;;;;;;4769205;55;21007;-30
2022/09/05 21:34:51;;;;;;;24.87;22.48;;;25.00;59.70;;;;;;4755282;55;21039;-30
2022/09/05 21:39:53;;;;;;;25.58;22.98;;;25.00;59.70;;;;;;4736125;59;21049;-32
2022/09/05 21:44:54;;;;;;;24.83;22.35;;;25.00;59.70;;;;;;4749876;55;21515;-28
2022/09/05 21:49:55;;;;;;;25.23;22.55;;;25.00;59.80;;;;;;4793903;55;20992;-25
2022/09/05 21:54:58;;;;;;;24.73;22.15;;;25.00;59.80;;;;;;4740105;55;21066;-29
2022/09/05 21:59:58;;;;;;;23.83;21.42;;;25.00;59.80;;;;;;4735895;59;21027;-30
2022/09/05 22:05:00;;;;;;;24.05;21.65;;;25.00;59.80;;;;;;4790752;55;21509;-32
2022/09/05 22:10:03;;;;;;;26.05;21.73;;;25.00;59.80;;;;;;4786689;55;21481;-35
2022/09/05 22:15:07;;;;;;;24.42;21.73;;;25.00;59.90;;;;;;4742032;55;21050;-36
2022/09/05 22:20:10;;;;;;;23.42;20.92;;;25.00;60.00;;;;;;4742469;55;21501;-25
2022/09/05 22:25:26;;;;;;;22.85;20.62;;;25.00;59.90;;;;;;4740604;55;21003;-26
2022/09/05 22:30:27;;;;;;;21.80;19.70;;;25.00;59.90;;;;;;4758060;55;21524;-25
2022/09/05 22:35:28;;;;;;;23.10;20.67;;;25.00;59.90;;;;;;4744514;55;21533;-25
2022/09/05 22:40:30;;;;;;;22.17;20.08;;;25.00;60.00;;;;;;4736437;59;20995;-25
2022/09/05 22:45:33;;;;;;;22.52;20.42;;;25.00;60.00;;;;;;4737312;55;21577;-30
2022/09/05 22:50:35;;;;;;;22.17;20.08;;;25.00;59.90;;;;;;4750315;55;20992;-31
2022/09/05 22:55:38;;;;;;;22.85;20.45;;;25.00;60.00;;;;;;4746060;55;21024;-29
2022/09/05 23:00:40;;;;;;;21.35;19.25;;;25.00;60.00;;;;;;4736795;55;21127;-27
2022/09/05 23:05:41;;;;;;;21.23;19.12;;;25.00;59.90;;;;;;4740996;55;21548;-30
2022/09/05 23:10:42;;;;;;;22.67;20.50;;;25.00;60.00;;;;;;4741788;55;21561;-27
2022/09/05 23:15:43;;;;;;;22.42;20.30;;;25.00;60.00;;;;;;4752786;55;21043;-29
2022/09/05 23:20:44;;;;;;;21.52;19.27;;;25.00;60.00;;;;;;4745192;55;21110;-34
2022/09/05 23:25:45;;;;;;;22.10;19.85;;;25.00;59.90;;;;;;4745725;55;21107;-37
2022/09/05 23:30:45;;;;;;;21.35;19.25;;;25.00;60.00;;;;;;4736366;56;21015;-31
2022/09/05 23:35:46;;;;;;;21.10;19.00;;;25.00;60.00;;;;;;4744432;55;20980;-36
2022/09/05 23:40:47;;;;;;;22.10;19.90;;;25.00;60.20;;;;;;4776470;55;20991;-36
2022/09/05 23:45:48;;;;;;;20.30;18.27;;;25.00;60.00;;;;;;4744293;55;21031;-27
2022/09/05 23:50:49;;;;;;;19.48;17.60;;;25.00;60.00;;;;;;4754940;55;20999;-32
2022/09/05 23:55:50;;;;;;;20.27;18.33;;;25.00;60.00;;;;;;4759637;55;21561;-36
